sensor_id;sensor_type;location;lat;lon;timestamp;pressure;altitude;pressure_sealevel;temperature;humidity
63306;BME280;50735;52.060;1.248;2023-10-13T00:01:11;100594.03;;;12.66;77.61
63306;BME280;50735;52.060;1.248;2023-10-13T00:03:43;100594.14;;;12.76;77.13
63306;BME280;50735;52.060;1.248;2023-10-13T00:06:15;100589.46;;;12.80;76.92
63306;BME280;50735;52.060;1.248;2023-10-13T00:08:47;100580.53;;;12.61;76.89
63306;BME280;50735;52.060;1.248;2023-10-13T00:11:18;100572.23;;;12.70;77.28
63306;BME280;50735;52.060;1.248;2023-10-13T00:13:50;100564.91;;;12.60;77.55
63306;BME280;50735;52.060;1.248;2023-10-13T00:16:22;100551.15;;;12.47;78.23
63306;BME280;50735;52.060;1.248;2023-10-13T00:18:54;100546.09;;;12.58;77.95
63306;BME280;50735;52.060;1.248;2023-10-13T00:21:25;100545.24;;;12.56;78.19
63306;BME280;50735;52.060;1.248;2023-10-13T00:23:58;100544.88;;;12.51;78.21
63306;BME280;50735;52.060;1.248;2023-10-13T00:26:31;100538.09;;;12.44;78.26
63306;BME280;50735;52.060;1.248;2023-10-13T00:29:04;100534.89;;;12.63;78.17
63306;BME280;50735;52.060;1.248;2023-10-13T00:31:37;100531.14;;;12.71;77.85
63306;BME280;50735;52.060;1.248;2023-10-13T00:34:09;100518.66;;;12.75;77.65
63306;BME280;50735;52.060;1.248;2023-10-13T00:36:41;100516.60;;;12.73;77.66
63306;BME280;50735;52.060;1.248;2023-10-13T00:39:13;100506.50;;;12.64;77.34
63306;BME280;50735;52.060;1.248;2023-10-13T00:41:45;100497.10;;;12.70;77.75
63306;BME280;50735;52.060;1.248;2023-10-13T00:44:16;100491.59;;;12.79;77.62
63306;BME280;50735;52.060;1.248;2023-10-13T00:46:48;100496.52;;;12.84;77.28
63306;BME280;50735;52.060;1.248;2023-10-13T00:49:20;100496.00;;;12.89;77.23
63306;BME280;50735;52.060;1.248;2023-10-13T00:51:52;100486.19;;;12.89;77.18
63306;BME280;50735;52.060;1.248;2023-10-13T00:54:24;100482.97;;;12.73;77.07
63306;BME280;50735;52.060;1.248;2023-10-13T00:56:56;100482.64;;;12.74;77.05
63306;BME280;50735;52.060;1.248;2023-10-13T00:59:29;100475.79;;;12.83;76.80
63306;BME280;50735;52.060;1.248;2023-10-13T01:02:00;100471.96;;;12.83;76.90
63306;BME280;50735;52.060;1.248;2023-10-13T01:04:32;100470.21;;;12.76;76.68
63306;BME280;50735;52.060;1.248;2023-10-13T01:07:04;100462.43;;;12.78;76.66
63306;BME280;50735;52.060;1.248;2023-10-13T01:09:40;100458.50;;;12.63;76.70
63306;BME280;50735;52.060;1.248;2023-10-13T01:12:13;100451.55;;;12.69;76.95
63306;BME280;50735;52.060;1.248;2023-10-13T01:14:44;100451.82;;;12.63;76.73
63306;BME280;50735;52.060;1.248;2023-10-13T01:17:16;100450.29;;;12.59;76.48
63306;BME280;50735;52.060;1.248;2023-10-13T01:19:48;100439.77;;;12.69;76.33
63306;BME280;50735;52.060;1.248;2023-10-13T01:22:19;100438.22;;;12.72;75.87
63306;BME280;50735;52.060;1.248;2023-10-13T01:24:51;100426.53;;;12.66;76.16
63306;BME280;50735;52.060;1.248;2023-10-13T01:27:23;100421.62;;;12.72;76.07
63306;BME280;50735;52.060;1.248;2023-10-13T01:29:55;100411.38;;;12.73;76.26
63306;BME280;50735;52.060;1.248;2023-10-13T01:32:26;100407.07;;;12.68;75.70
63306;BME280;50735;52.060;1.248;2023-10-13T01:34:58;100398.47;;;12.90;75.81
63306;BME280;50735;52.060;1.248;2023-10-13T01:37:30;100389.24;;;12.92;75.59
63306;BME280;50735;52.060;1.248;2023-10-13T01:40:02;100383.66;;;12.95;75.39
63306;BME280;50735;52.060;1.248;2023-10-13T01:42:34;100379.53;;;12.88;75.56
63306;BME280;50735;52.060;1.248;2023-10-13T01:45:06;100371.13;;;12.79;75.80
63306;BME280;50735;52.060;1.248;2023-10-13T01:47:38;100364.91;;;12.59;76.52
63306;BME280;50735;52.060;1.248;2023-10-13T01:50:10;100358.78;;;12.71;76.59
63306;BME280;50735;52.060;1.248;2023-10-13T01:52:42;100351.24;;;12.82;75.80
63306;BME280;50735;52.060;1.248;2023-10-13T01:55:14;100339.84;;;12.68;76.02
63306;BME280;50735;52.060;1.248;2023-10-13T01:57:45;100337.15;;;12.76;76.03
63306;BME280;50735;52.060;1.248;2023-10-13T02:00:17;100323.90;;;12.69;75.94
63306;BME280;50735;52.060;1.248;2023-10-13T02:02:49;100319.45;;;12.79;75.70
63306;BME280;50735;52.060;1.248;2023-10-13T02:05:21;100310.59;;;12.80;75.88
63306;BME280;50735;52.060;1.248;2023-10-13T02:07:52;100300.22;;;12.80;75.67
63306;BME280;50735;52.060;1.248;2023-10-13T02:10:24;100287.95;;;12.80;75.79
63306;BME280;50735;52.060;1.248;2023-10-13T02:12:56;100279.13;;;12.83;75.60
63306;BME280;50735;52.060;1.248;2023-10-13T02:15:27;100270.81;;;12.92;75.38
63306;BME280;50735;52.060;1.248;2023-10-13T02:17:59;100260.44;;;12.82;75.57
63306;BME280;50735;52.060;1.248;2023-10-13T02:20:31;100243.97;;;12.52;76.23
63306;BME280;50735;52.060;1.248;2023-10-13T02:23:03;100254.78;;;12.66;76.32
63306;BME280;50735;52.060;1.248;2023-10-13T02:25:35;100244.31;;;12.73;76.61
63306;BME280;50735;52.060;1.248;2023-10-13T02:28:06;100239.92;;;12.75;76.60
63306;BME280;50735;52.060;1.248;2023-10-13T02:30:38;100224.86;;;12.87;76.46
63306;BME280;50735;52.060;1.248;2023-10-13T02:33:11;100218.55;;;12.83;76.62
63306;BME280;50735;52.060;1.248;2023-10-13T02:35:43;100221.39;;;12.68;77.60
63306;BME280;50735;52.060;1.248;2023-10-13T02:38:15;100211.06;;;12.59;78.25
63306;BME280;50735;52.060;1.248;2023-10-13T02:40:47;100213.24;;;12.57;79.08
63306;BME280;50735;52.060;1.248;2023-10-13T02:43:18;100246.16;;;12.47;78.88
63306;BME280;50735;52.060;1.248;2023-10-13T02:45:52;100239.19;;;12.43;80.11
63306;BME280;50735;52.060;1.248;2023-10-13T02:48:25;100239.21;;;12.43;81.01
63306;BME280;50735;52.060;1.248;2023-10-13T02:50:59;100228.31;;;12.35;81.34
63306;BME280;50735;52.060;1.248;2023-10-13T02:53:31;100225.96;;;12.34;81.59
63306;BME280;50735;52.060;1.248;2023-10-13T02:56:03;100221.86;;;12.66;81.50
63306;BME280;50735;52.060;1.248;2023-10-13T02:58:35;100208.40;;;12.58;81.37
63306;BME280;50735;52.060;1.248;2023-10-13T03:01:07;100202.91;;;12.51;81.03
63306;BME280;50735;52.060;1.248;2023-10-13T03:03:39;100190.57;;;12.72;80.74
63306;BME280;50735;52.060;1.248;2023-10-13T03:06:11;100181.35;;;12.57;80.21
63306;BME280;50735;52.060;1.248;2023-10-13T03:08:43;100180.87;;;12.63;79.33
63306;BME280;50735;52.060;1.248;2023-10-13T03:11:14;100175.78;;;12.60;79.60
63306;BME280;50735;52.060;1.248;2023-10-13T03:13:46;100184.85;;;12.67;79.04
63306;BME280;50735;52.060;1.248;2023-10-13T03:16:18;100167.23;;;12.56;79.05
63306;BME280;50735;52.060;1.248;2023-10-13T03:18:49;100162.79;;;12.56;78.77
63306;BME280;50735;52.060;1.248;2023-10-13T03:21:22;100151.75;;;12.66;78.39
63306;BME280;50735;52.060;1.248;2023-10-13T03:23:55;100164.82;;;12.57;77.33
63306;BME280;50735;52.060;1.248;2023-10-13T03:26:27;100147.72;;;12.18;77.52
63306;BME280;50735;52.060;1.248;2023-10-13T03:28:59;100132.05;;;12.52;76.90
63306;BME280;50735;52.060;1.248;2023-10-13T03:31:31;100124.45;;;12.52;76.37
63306;BME280;50735;52.060;1.248;2023-10-13T03:34:04;100103.87;;;12.52;76.16
63306;BME280;50735;52.060;1.248;2023-10-13T03:36:36;100092.05;;;12.48;75.78
63306;BME280;50735;52.060;1.248;2023-10-13T03:39:08;100098.78;;;12.42;76.23
63306;BME280;50735;52.060;1.248;2023-10-13T03:41:40;100092.89;;;12.59;75.29
63306;BME280;50735;52.060;1.248;2023-10-13T03:44:12;100073.92;;;12.69;74.69
63306;BME280;50735;52.060;1.248;2023-10-13T03:46:44;100077.37;;;12.60;74.84
63306;BME280;50735;52.060;1.248;2023-10-13T03:49:15;100065.21;;;12.66;74.65
63306;BME280;50735;52.060;1.248;2023-10-13T03:51:48;100057.77;;;12.70;74.49
63306;BME280;50735;52.060;1.248;2023-10-13T03:54:20;100053.67;;;12.60;74.40
63306;BME280;50735;52.060;1.248;2023-10-13T03:56:52;100048.07;;;12.41;75.01
63306;BME280;50735;52.060;1.248;2023-10-13T03:59:23;100046.99;;;12.48;74.29
63306;BME280;50735;52.060;1.248;2023-10-13T04:01:55;100030.74;;;12.71;73.78
63306;BME280;50735;52.060;1.248;2023-10-13T04:04:27;100025.16;;;12.39;74.23
63306;BME280;50735;52.060;1.248;2023-10-13T04:07:00;100024.53;;;12.61;74.52
63306;BME280;50735;52.060;1.248;2023-10-13T04:09:32;100019.40;;;12.52;74.57
63306;BME280;50735;52.060;1.248;2023-10-13T04:12:05;100017.51;;;12.44;74.29
63306;BME280;50735;52.060;1.248;2023-10-13T04:14:39;100014.71;;;12.73;74.15
63306;BME280;50735;52.060;1.248;2023-10-13T04:17:12;100012.13;;;12.75;73.86
63306;BME280;50735;52.060;1.248;2023-10-13T04:19:44;100006.17;;;13.12;74.22
63306;BME280;50735;52.060;1.248;2023-10-13T04:22:16;99996.29;;;12.79;74.18
63306;BME280;50735;52.060;1.248;2023-10-13T04:24:49;99981.47;;;12.87;73.78
63306;BME280;50735;52.060;1.248;2023-10-13T04:27:20;99975.05;;;12.91;73.63
63306;BME280;50735;52.060;1.248;2023-10-13T04:29:52;99971.01;;;12.69;73.92
63306;BME280;50735;52.060;1.248;2023-10-13T04:32:23;99959.04;;;12.97;74.09
63306;BME280;50735;52.060;1.248;2023-10-13T04:34:55;99949.21;;;13.00;73.99
63306;BME280;50735;52.060;1.248;2023-10-13T04:37:27;99944.70;;;12.84;74.06
63306;BME280;50735;52.060;1.248;2023-10-13T04:39:59;99934.23;;;13.06;74.06
63306;BME280;50735;52.060;1.248;2023-10-13T04:42:32;99926.75;;;13.04;74.42
63306;BME280;50735;52.060;1.248;2023-10-13T04:45:06;99921.06;;;12.91;74.44
63306;BME280;50735;52.060;1.248;2023-10-13T04:47:37;99917.00;;;13.14;74.93
63306;BME280;50735;52.060;1.248;2023-10-13T04:50:09;99908.78;;;12.89;75.52
63306;BME280;50735;52.060;1.248;2023-10-13T04:52:41;99898.19;;;13.12;75.79
63306;BME280;50735;52.060;1.248;2023-10-13T04:55:12;99889.27;;;13.03;76.54
63306;BME280;50735;52.060;1.248;2023-10-13T04:57:45;99879.79;;;12.55;77.48
63306;BME280;50735;52.060;1.248;2023-10-13T05:00:17;99878.66;;;12.72;78.28
63306;BME280;50735;52.060;1.248;2023-10-13T05:02:49;99868.11;;;12.78;78.81
63306;BME280;50735;52.060;1.248;2023-10-13T05:05:21;99865.54;;;12.83;78.74
63306;BME280;50735;52.060;1.248;2023-10-13T05:07:53;99858.81;;;12.71;79.25
63306;BME280;50735;52.060;1.248;2023-10-13T05:10:24;99852.11;;;12.75;79.91
63306;BME280;50735;52.060;1.248;2023-10-13T05:12:57;99848.26;;;12.73;79.98
63306;BME280;50735;52.060;1.248;2023-10-13T05:15:28;99840.35;;;12.53;80.21
63306;BME280;50735;52.060;1.248;2023-10-13T05:18:00;99837.62;;;12.74;79.91
63306;BME280;50735;52.060;1.248;2023-10-13T05:20:31;99836.17;;;12.68;80.49
63306;BME280;50735;52.060;1.248;2023-10-13T05:23:03;99820.92;;;12.77;80.20
63306;BME280;50735;52.060;1.248;2023-10-13T05:25:36;99815.75;;;12.99;80.07
63306;BME280;50735;52.060;1.248;2023-10-13T05:28:08;99825.98;;;12.80;80.25
63306;BME280;50735;52.060;1.248;2023-10-13T05:30:39;99819.88;;;12.92;80.23
63306;BME280;50735;52.060;1.248;2023-10-13T05:33:12;99816.47;;;13.06;79.93
63306;BME280;50735;52.060;1.248;2023-10-13T05:35:44;99820.45;;;13.01;80.02
63306;BME280;50735;52.060;1.248;2023-10-13T05:38:15;99825.65;;;13.17;79.82
63306;BME280;50735;52.060;1.248;2023-10-13T05:40:52;99813.70;;;12.89;80.12
63306;BME280;50735;52.060;1.248;2023-10-13T05:43:23;99803.94;;;12.75;80.24
63306;BME280;50735;52.060;1.248;2023-10-13T05:46:01;99806.13;;;12.97;80.26
63306;BME280;50735;52.060;1.248;2023-10-13T05:48:33;99801.08;;;13.05;80.33
63306;BME280;50735;52.060;1.248;2023-10-13T05:51:05;99793.72;;;12.93;80.37
63306;BME280;50735;52.060;1.248;2023-10-13T05:53:36;99780.15;;;12.76;80.69
63306;BME280;50735;52.060;1.248;2023-10-13T05:56:08;99792.90;;;13.07;80.63
63306;BME280;50735;52.060;1.248;2023-10-13T05:58:40;99787.51;;;12.99;80.51
63306;BME280;50735;52.060;1.248;2023-10-13T06:01:12;99790.58;;;13.23;80.08
63306;BME280;50735;52.060;1.248;2023-10-13T06:03:45;99796.74;;;13.06;79.51
63306;BME280;50735;52.060;1.248;2023-10-13T06:06:17;99791.17;;;13.02;79.66
63306;BME280;50735;52.060;1.248;2023-10-13T06:08:49;99781.61;;;13.05;79.50
63306;BME280;50735;52.060;1.248;2023-10-13T06:11:20;99780.10;;;13.20;79.25
63306;BME280;50735;52.060;1.248;2023-10-13T06:13:53;99773.13;;;13.23;78.95
63306;BME280;50735;52.060;1.248;2023-10-13T06:16:24;99763.55;;;13.14;79.32
63306;BME280;50735;52.060;1.248;2023-10-13T06:18:57;99773.10;;;13.24;78.85
63306;BME280;50735;52.060;1.248;2023-10-13T06:21:29;99779.86;;;13.24;78.95
63306;BME280;50735;52.060;1.248;2023-10-13T06:24:00;99770.31;;;13.23;78.77
63306;BME280;50735;52.060;1.248;2023-10-13T06:26:32;99768.92;;;13.32;78.75
63306;BME280;50735;52.060;1.248;2023-10-13T06:29:05;99767.10;;;13.58;78.66
63306;BME280;50735;52.060;1.248;2023-10-13T06:31:36;99762.84;;;13.64;78.36
63306;BME280;50735;52.060;1.248;2023-10-13T06:34:08;99768.17;;;13.40;77.82
63306;BME280;50735;52.060;1.248;2023-10-13T06:36:40;99770.20;;;13.87;77.31
63306;BME280;50735;52.060;1.248;2023-10-13T06:39:12;99756.81;;;13.28;77.35
63306;BME280;50735;52.060;1.248;2023-10-13T06:41:44;99756.91;;;13.35;77.52
63306;BME280;50735;52.060;1.248;2023-10-13T06:44:16;99756.47;;;13.27;77.58
63306;BME280;50735;52.060;1.248;2023-10-13T06:46:48;99751.94;;;13.66;77.55
63306;BME280;50735;52.060;1.248;2023-10-13T06:49:20;99754.90;;;13.71;77.29
63306;BME280;50735;52.060;1.248;2023-10-13T06:51:52;99742.78;;;13.73;76.81
63306;BME280;50735;52.060;1.248;2023-10-13T06:54:23;99744.76;;;13.60;77.10
63306;BME280;50735;52.060;1.248;2023-10-13T06:56:55;99741.15;;;13.93;76.69
63306;BME280;50735;52.060;1.248;2023-10-13T06:59:27;99737.91;;;13.69;76.33
63306;BME280;50735;52.060;1.248;2023-10-13T07:01:59;99735.11;;;13.72;76.33
63306;BME280;50735;52.060;1.248;2023-10-13T07:04:31;99732.17;;;13.72;76.20
63306;BME280;50735;52.060;1.248;2023-10-13T07:07:03;99730.89;;;13.93;75.65
63306;BME280;50735;52.060;1.248;2023-10-13T07:09:36;99721.16;;;13.83;75.98
63306;BME280;50735;52.060;1.248;2023-10-13T07:12:07;99718.06;;;13.85;75.67
63306;BME280;50735;52.060;1.248;2023-10-13T07:14:39;99709.31;;;13.63;76.10
63306;BME280;50735;52.060;1.248;2023-10-13T07:17:11;99710.85;;;13.83;75.66
63306;BME280;50735;52.060;1.248;2023-10-13T07:19:43;99713.18;;;13.96;75.42
63306;BME280;50735;52.060;1.248;2023-10-13T07:22:15;99713.04;;;14.04;74.95
63306;BME280;50735;52.060;1.248;2023-10-13T07:24:48;99706.24;;;13.82;75.83
63306;BME280;50735;52.060;1.248;2023-10-13T07:27:21;99704.78;;;13.89;75.26
63306;BME280;50735;52.060;1.248;2023-10-13T07:29:55;99707.48;;;14.37;74.73
63306;BME280;50735;52.060;1.248;2023-10-13T07:32:27;99711.04;;;14.13;74.66
63306;BME280;50735;52.060;1.248;2023-10-13T07:34:58;99716.95;;;14.26;74.41
63306;BME280;50735;52.060;1.248;2023-10-13T07:37:29;99716.85;;;13.98;74.54
63306;BME280;50735;52.060;1.248;2023-10-13T07:40:03;99718.19;;;14.01;74.69
63306;BME280;50735;52.060;1.248;2023-10-13T07:42:35;99713.67;;;14.22;74.50
63306;BME280;50735;52.060;1.248;2023-10-13T07:45:07;99722.95;;;13.95;75.47
63306;BME280;50735;52.060;1.248;2023-10-13T07:47:39;99727.27;;;14.16;75.12
63306;BME280;50735;52.060;1.248;2023-10-13T07:50:11;99716.20;;;14.43;74.53
63306;BME280;50735;52.060;1.248;2023-10-13T07:52:44;99734.45;;;14.41;74.57
63306;BME280;50735;52.060;1.248;2023-10-13T07:55:16;99717.23;;;14.16;74.55
63306;BME280;50735;52.060;1.248;2023-10-13T07:57:47;99715.24;;;14.51;74.00
63306;BME280;50735;52.060;1.248;2023-10-13T08:00:19;99702.70;;;14.71;74.00
63306;BME280;50735;52.060;1.248;2023-10-13T08:02:56;99707.71;;;14.26;73.91
63306;BME280;50735;52.060;1.248;2023-10-13T08:05:28;99706.22;;;14.40;73.74
63306;BME280;50735;52.060;1.248;2023-10-13T08:08:00;99706.37;;;14.69;73.99
63306;BME280;50735;52.060;1.248;2023-10-13T08:10:35;99703.90;;;14.52;74.09
63306;BME280;50735;52.060;1.248;2023-10-13T08:13:07;99706.61;;;14.49;73.97
63306;BME280;50735;52.060;1.248;2023-10-13T08:15:40;99708.89;;;14.44;73.81
63306;BME280;50735;52.060;1.248;2023-10-13T08:18:12;99714.19;;;14.54;74.20
63306;BME280;50735;52.060;1.248;2023-10-13T08:20:43;99715.37;;;14.62;74.13
63306;BME280;50735;52.060;1.248;2023-10-13T08:23:15;99700.72;;;14.78;74.30
63306;BME280;50735;52.060;1.248;2023-10-13T08:25:47;99707.65;;;14.49;74.70
63306;BME280;50735;52.060;1.248;2023-10-13T08:28:19;99696.81;;;14.46;74.57
63306;BME280;50735;52.060;1.248;2023-10-13T08:30:51;99688.43;;;14.55;74.34
63306;BME280;50735;52.060;1.248;2023-10-13T08:33:24;99688.51;;;14.52;74.57
63306;BME280;50735;52.060;1.248;2023-10-13T08:35:55;99696.48;;;14.53;74.51
63306;BME280;50735;52.060;1.248;2023-10-13T08:38:27;99681.89;;;14.77;74.37
63306;BME280;50735;52.060;1.248;2023-10-13T08:40:59;99677.59;;;14.63;74.38
63306;BME280;50735;52.060;1.248;2023-10-13T08:43:32;99664.24;;;14.76;74.04
63306;BME280;50735;52.060;1.248;2023-10-13T08:46:04;99670.98;;;14.83;74.10
63306;BME280;50735;52.060;1.248;2023-10-13T08:48:36;99669.15;;;14.82;73.93
63306;BME280;50735;52.060;1.248;2023-10-13T08:51:08;99664.83;;;14.78;74.37
63306;BME280;50735;52.060;1.248;2023-10-13T08:53:40;99665.08;;;14.86;74.23
63306;BME280;50735;52.060;1.248;2023-10-13T08:56:13;99661.54;;;14.91;73.83
63306;BME280;50735;52.060;1.248;2023-10-13T08:58:47;99657.02;;;14.89;73.86
63306;BME280;50735;52.060;1.248;2023-10-13T09:01:19;99661.76;;;14.88;73.91
63306;BME280;50735;52.060;1.248;2023-10-13T09:03:55;99661.95;;;14.81;73.83
63306;BME280;50735;52.060;1.248;2023-10-13T09:06:28;99673.83;;;15.01;73.53
63306;BME280;50735;52.060;1.248;2023-10-13T09:09:04;99657.80;;;14.81;73.74
63306;BME280;50735;52.060;1.248;2023-10-13T09:11:38;99660.06;;;14.72;74.04
63306;BME280;50735;52.060;1.248;2023-10-13T09:14:13;99666.54;;;14.71;73.64
63306;BME280;50735;52.060;1.248;2023-10-13T09:16:44;99659.00;;;14.72;73.73
63306;BME280;50735;52.060;1.248;2023-10-13T09:19:17;99658.11;;;14.73;73.87
63306;BME280;50735;52.060;1.248;2023-10-13T09:21:49;99639.67;;;14.80;73.92
63306;BME280;50735;52.060;1.248;2023-10-13T09:24:20;99642.77;;;14.88;73.96
63306;BME280;50735;52.060;1.248;2023-10-13T09:26:53;99648.25;;;14.88;74.19
63306;BME280;50735;52.060;1.248;2023-10-13T09:29:25;99642.09;;;14.92;73.75
63306;BME280;50735;52.060;1.248;2023-10-13T09:32:00;99642.28;;;14.93;73.40
63306;BME280;50735;52.060;1.248;2023-10-13T09:34:32;99638.53;;;14.81;73.85
63306;BME280;50735;52.060;1.248;2023-10-13T09:37:04;99649.58;;;14.93;72.87
63306;BME280;50735;52.060;1.248;2023-10-13T09:39:36;99656.37;;;14.86;72.71
63306;BME280;50735;52.060;1.248;2023-10-13T09:42:07;99668.91;;;14.71;73.43
63306;BME280;50735;52.060;1.248;2023-10-13T09:44:39;99677.65;;;14.81;73.32
63306;BME280;50735;52.060;1.248;2023-10-13T09:47:12;99692.22;;;14.37;73.79
63306;BME280;50735;52.060;1.248;2023-10-13T09:49:45;99688.16;;;14.29;73.09
63306;BME280;50735;52.060;1.248;2023-10-13T09:52:19;99698.23;;;14.37;73.45
63306;BME280;50735;52.060;1.248;2023-10-13T09:55:13;99691.51;;;14.15;73.55
63306;BME280;50735;52.060;1.248;2023-10-13T09:57:52;99685.43;;;14.21;75.34
63306;BME280;50735;52.060;1.248;2023-10-13T10:00:29;99689.90;;;14.12;75.88
63306;BME280;50735;52.060;1.248;2023-10-13T10:03:06;99695.82;;;14.03;77.73
63306;BME280;50735;52.060;1.248;2023-10-13T10:05:38;99703.68;;;13.94;77.66
63306;BME280;50735;52.060;1.248;2023-10-13T10:08:10;99700.35;;;13.84;77.69
63306;BME280;50735;52.060;1.248;2023-10-13T10:10:50;99697.31;;;14.00;77.50
63306;BME280;50735;52.060;1.248;2023-10-13T10:13:32;99691.74;;;13.72;77.61
63306;BME280;50735;52.060;1.248;2023-10-13T10:16:10;99698.20;;;13.75;77.60
63306;BME280;50735;52.060;1.248;2023-10-13T10:18:42;99693.29;;;13.71;78.64
63306;BME280;50735;52.060;1.248;2023-10-13T10:21:14;99697.39;;;13.87;78.27
63306;BME280;50735;52.060;1.248;2023-10-13T10:23:52;99691.62;;;13.74;78.72
63306;BME280;50735;52.060;1.248;2023-10-13T10:26:24;99690.17;;;13.76;78.78
63306;BME280;50735;52.060;1.248;2023-10-13T10:28:56;99676.72;;;14.11;78.84
63306;BME280;50735;52.060;1.248;2023-10-13T10:31:31;99674.51;;;13.98;78.42
63306;BME280;50735;52.060;1.248;2023-10-13T10:34:12;99660.82;;;14.06;78.14
63306;BME280;50735;52.060;1.248;2023-10-13T10:36:47;99660.93;;;14.23;77.75
63306;BME280;50735;52.060;1.248;2023-10-13T10:39:19;99673.53;;;13.90;77.75
63306;BME280;50735;52.060;1.248;2023-10-13T10:41:51;99692.00;;;14.03;78.42
63306;BME280;50735;52.060;1.248;2023-10-13T10:44:23;99675.41;;;13.97;77.83
63306;BME280;50735;52.060;1.248;2023-10-13T10:46:55;99661.43;;;14.06;77.70
63306;BME280;50735;52.060;1.248;2023-10-13T10:49:28;99667.36;;;14.05;77.09
63306;BME280;50735;52.060;1.248;2023-10-13T10:52:00;99674.27;;;14.45;76.94
63306;BME280;50735;52.060;1.248;2023-10-13T10:54:32;99663.30;;;14.32;76.54
63306;BME280;50735;52.060;1.248;2023-10-13T10:57:04;99647.69;;;14.19;76.23
63306;BME280;50735;52.060;1.248;2023-10-13T10:59:36;99646.56;;;14.56;75.90
63306;BME280;50735;52.060;1.248;2023-10-13T11:02:09;99646.38;;;14.26;76.78
63306;BME280;50735;52.060;1.248;2023-10-13T11:04:41;99645.72;;;14.25;76.77
63306;BME280;50735;52.060;1.248;2023-10-13T11:07:21;99642.96;;;14.32;77.36
63306;BME280;50735;52.060;1.248;2023-10-13T11:09:53;99639.27;;;14.47;76.84
63306;BME280;50735;52.060;1.248;2023-10-13T11:12:24;99646.67;;;14.38;76.77
63306;BME280;50735;52.060;1.248;2023-10-13T11:15:00;99648.10;;;14.65;76.59
63306;BME280;50735;52.060;1.248;2023-10-13T11:17:33;99640.51;;;14.89;76.33
63306;BME280;50735;52.060;1.248;2023-10-13T11:20:09;99636.27;;;15.09;75.25
63306;BME280;50735;52.060;1.248;2023-10-13T11:22:40;99617.47;;;15.14;74.61
63306;BME280;50735;52.060;1.248;2023-10-13T11:25:21;99621.08;;;15.05;75.19
63306;BME280;50735;52.060;1.248;2023-10-13T11:27:53;99615.42;;;14.80;75.85
63306;BME280;50735;52.060;1.248;2023-10-13T11:30:27;99626.94;;;14.86;75.83
63306;BME280;50735;52.060;1.248;2023-10-13T11:33:00;99618.27;;;14.97;75.36
63306;BME280;50735;52.060;1.248;2023-10-13T11:35:33;99607.42;;;15.21;75.39
63306;BME280;50735;52.060;1.248;2023-10-13T11:38:05;99598.06;;;14.85;74.70
63306;BME280;50735;52.060;1.248;2023-10-13T11:40:37;99597.64;;;15.15;74.52
63306;BME280;50735;52.060;1.248;2023-10-13T11:43:10;99598.64;;;15.22;75.09
63306;BME280;50735;52.060;1.248;2023-10-13T11:45:47;99601.60;;;15.53;74.16
63306;BME280;50735;52.060;1.248;2023-10-13T11:48:19;99607.00;;;15.61;73.63
63306;BME280;50735;52.060;1.248;2023-10-13T11:50:50;99599.53;;;15.69;73.23
63306;BME280;50735;52.060;1.248;2023-10-13T11:53:22;99597.45;;;15.51;73.48
63306;BME280;50735;52.060;1.248;2023-10-13T11:55:55;99588.25;;;15.52;73.14
63306;BME280;50735;52.060;1.248;2023-10-13T11:58:27;99587.60;;;15.89;72.50
63306;BME280;50735;52.060;1.248;2023-10-13T12:00:59;99584.06;;;16.01;71.74
63306;BME280;50735;52.060;1.248;2023-10-13T12:03:30;99575.99;;;16.14;71.20
63306;BME280;50735;52.060;1.248;2023-10-13T12:06:02;99588.28;;;16.10;70.79
63306;BME280;50735;52.060;1.248;2023-10-13T12:08:33;99594.55;;;16.11;70.74
63306;BME280;50735;52.060;1.248;2023-10-13T12:11:06;99584.15;;;16.45;70.96
63306;BME280;50735;52.060;1.248;2023-10-13T12:13:37;99576.26;;;16.23;70.46
63306;BME280;50735;52.060;1.248;2023-10-13T12:16:09;99586.55;;;16.30;69.48
63306;BME280;50735;52.060;1.248;2023-10-13T12:18:41;99583.63;;;16.76;68.89
63306;BME280;50735;52.060;1.248;2023-10-13T12:21:13;99585.08;;;16.91;68.40
63306;BME280;50735;52.060;1.248;2023-10-13T12:23:45;99585.24;;;16.68;68.31
63306;BME280;50735;52.060;1.248;2023-10-13T12:26:16;99591.84;;;16.60;68.56
63306;BME280;50735;52.060;1.248;2023-10-13T12:28:48;99593.44;;;16.24;69.07
63306;BME280;50735;52.060;1.248;2023-10-13T12:31:20;99594.61;;;16.16;69.66
63306;BME280;50735;52.060;1.248;2023-10-13T12:33:52;99592.98;;;16.09;70.37
63306;BME280;50735;52.060;1.248;2023-10-13T12:36:24;99590.67;;;16.53;69.30
63306;BME280;50735;52.060;1.248;2023-10-13T12:38:55;99600.41;;;16.34;69.63
63306;BME280;50735;52.060;1.248;2023-10-13T12:41:27;99601.19;;;16.41;69.45
63306;BME280;50735;52.060;1.248;2023-10-13T12:44:00;99596.02;;;16.29;69.53
63306;BME280;50735;52.060;1.248;2023-10-13T12:46:32;99595.36;;;16.35;69.11
63306;BME280;50735;52.060;1.248;2023-10-13T12:49:04;99589.74;;;16.48;68.23
63306;BME280;50735;52.060;1.248;2023-10-13T12:51:35;99589.38;;;16.73;68.33
63306;BME280;50735;52.060;1.248;2023-10-13T12:54:07;99582.64;;;16.92;67.49
63306;BME280;50735;52.060;1.248;2023-10-13T12:56:39;99588.72;;;16.80;67.30
63306;BME280;50735;52.060;1.248;2023-10-13T12:59:11;99596.23;;;16.91;66.22
63306;BME280;50735;52.060;1.248;2023-10-13T13:01:43;99584.61;;;16.76;66.49
63306;BME280;50735;52.060;1.248;2023-10-13T13:04:15;99585.78;;;17.23;66.40
63306;BME280;50735;52.060;1.248;2023-10-13T13:06:47;99589.34;;;17.03;63.70
63306;BME280;50735;52.060;1.248;2023-10-13T13:09:19;99608.41;;;17.11;63.50
63306;BME280;50735;52.060;1.248;2023-10-13T13:11:52;99606.40;;;17.03;62.54
63306;BME280;50735;52.060;1.248;2023-10-13T13:14:23;99605.00;;;16.64;63.31
63306;BME280;50735;52.060;1.248;2023-10-13T13:16:55;99598.88;;;16.97;63.67
63306;BME280;50735;52.060;1.248;2023-10-13T13:19:27;99596.10;;;16.63;64.15
63306;BME280;50735;52.060;1.248;2023-10-13T13:21:58;99588.74;;;16.80;64.10
63306;BME280;50735;52.060;1.248;2023-10-13T13:24:30;99588.07;;;17.10;64.37